sensor_id;sensor_type;location;lat;lon;timestamp;pressure;altitude;pressure_sealevel;temperature;humidity
71504;BME280;59323;50.874;7.028;2024-03-02T00:00:15;99753.81;;;7.25;95.30
71504;BME280;59323;50.874;7.028;2024-03-02T00:02:44;99751.16;;;7.29;95.31
71504;BME280;59323;50.874;7.028;2024-03-02T00:05:20;99750.38;;;7.28;95.35
71504;BME280;59323;50.874;7.028;2024-03-02T00:07:52;99746.94;;;7.31;95.17
71504;BME280;59323;50.874;7.028;2024-03-02T00:10:24;99739.63;;;7.32;95.01
71504;BME280;59323;50.874;7.028;2024-03-02T00:12:54;99741.22;;;7.37;94.69
71504;BME280;59323;50.874;7.028;2024-03-02T00:17:54;99738.97;;;7.42;94.33
71504;BME280;59323;50.874;7.028;2024-03-02T00:20:23;99736.25;;;7.42;94.40
71504;BME280;59323;50.874;7.028;2024-03-02T00:22:52;99735.13;;;7.43;94.17
71504;BME280;59323;50.874;7.028;2024-03-02T00:25:21;99727.84;;;7.47;93.97
71504;BME280;59323;50.874;7.028;2024-03-02T00:27:50;99720.91;;;7.50;93.55
71504;BME280;59323;50.874;7.028;2024-03-02T00:36:05;99717.50;;;7.56;93.03
71504;BME280;59323;50.874;7.028;2024-03-02T00:38:36;99719.13;;;7.61;92.72
71504;BME280;59323;50.874;7.028;2024-03-02T00:41:06;99702.47;;;7.59;92.83
71504;BME280;59323;50.874;7.028;2024-03-02T00:46:11;99698.25;;;7.61;92.95
71504;BME280;59323;50.874;7.028;2024-03-02T00:48:52;99694.78;;;7.61;92.69
71504;BME280;59323;50.874;7.028;2024-03-02T00:51:19;99710.25;;;7.64;92.31
71504;BME280;59323;50.874;7.028;2024-03-02T00:53:45;99709.56;;;7.71;91.96
71504;BME280;59323;50.874;7.028;2024-03-02T00:56:11;99708.38;;;7.68;91.97
71504;BME280;59323;50.874;7.028;2024-03-02T00:58:38;99707.59;;;7.68;91.93
71504;BME280;59323;50.874;7.028;2024-03-02T01:01:05;99701.03;;;7.69;91.64
71504;BME280;59323;50.874;7.028;2024-03-02T01:03:34;99701.03;;;7.69;91.41
71504;BME280;59323;50.874;7.028;2024-03-02T01:05:59;99694.06;;;7.68;92.05
71504;BME280;59323;50.874;7.028;2024-03-02T01:08:25;99700.97;;;7.61;92.02
71504;BME280;59323;50.874;7.028;2024-03-02T01:10:51;99695.16;;;7.59;91.86
71504;BME280;59323;50.874;7.028;2024-03-02T01:13:16;99703.97;;;7.53;92.51
71504;BME280;59323;50.874;7.028;2024-03-02T01:15:41;99697.72;;;7.49;92.57
71504;BME280;59323;50.874;7.028;2024-03-02T01:18:07;99688.44;;;7.46;92.45
71504;BME280;59323;50.874;7.028;2024-03-02T01:20:33;99683.44;;;7.48;92.55
71504;BME280;59323;50.874;7.028;2024-03-02T01:23:00;99686.16;;;7.48;92.51
71504;BME280;59323;50.874;7.028;2024-03-02T01:25:28;99693.81;;;7.43;92.90
71504;BME280;59323;50.874;7.028;2024-03-02T01:27:53;99688.69;;;7.34;93.52
71504;BME280;59323;50.874;7.028;2024-03-02T01:30:18;99694.41;;;7.29;93.89
71504;BME280;59323;50.874;7.028;2024-03-02T01:32:44;99690.16;;;7.28;93.85
71504;BME280;59323;50.874;7.028;2024-03-02T01:35:09;99685.91;;;7.27;93.67
71504;BME280;59323;50.874;7.028;2024-03-02T01:37:35;99692.50;;;7.29;93.50
71504;BME280;59323;50.874;7.028;2024-03-02T01:40:02;99684.78;;;7.31;93.29
71504;BME280;59323;50.874;7.028;2024-03-02T01:42:37;99682.47;;;7.30;93.49
71504;BME280;59323;50.874;7.028;2024-03-02T01:45:07;99678.53;;;7.24;93.75
71504;BME280;59323;50.874;7.028;2024-03-02T01:47:33;99682.78;;;7.25;93.49
71504;BME280;59323;50.874;7.028;2024-03-02T01:49:59;99675.88;;;7.27;93.68
71504;BME280;59323;50.874;7.028;2024-03-02T01:52:27;99671.53;;;7.19;94.11
71504;BME280;59323;50.874;7.028;2024-03-02T01:54:53;99667.63;;;7.17;94.71
71504;BME280;59323;50.874;7.028;2024-03-02T01:57:19;99663.78;;;7.18;94.66
71504;BME280;59323;50.874;7.028;2024-03-02T01:59:45;99668.41;;;7.17;94.84
71504;BME280;59323;50.874;7.028;2024-03-02T02:02:11;99671.88;;;7.18;95.07
71504;BME280;59323;50.874;7.028;2024-03-02T02:04:38;99668.81;;;7.19;94.76
71504;BME280;59323;50.874;7.028;2024-03-02T02:07:04;99671.47;;;7.16;95.20
71504;BME280;59323;50.874;7.028;2024-03-02T02:09:29;99666.47;;;7.18;95.01
71504;BME280;59323;50.874;7.028;2024-03-02T02:11:57;99660.31;;;7.17;94.93
71504;BME280;59323;50.874;7.028;2024-03-02T02:14:24;99664.94;;;7.17;94.86
71504;BME280;59323;50.874;7.028;2024-03-02T02:16:50;99656.50;;;7.22;94.67
71504;BME280;59323;50.874;7.028;2024-03-02T02:19:15;99652.19;;;7.17;94.52
71504;BME280;59323;50.874;7.028;2024-03-02T02:21:43;99644.88;;;7.18;95.09
71504;BME280;59323;50.874;7.028;2024-03-02T02:24:09;99654.91;;;7.17;94.93
71504;BME280;59323;50.874;7.028;2024-03-02T02:26:34;99662.63;;;7.19;94.84
71504;BME280;59323;50.874;7.028;2024-03-02T02:29:02;99659.53;;;7.17;94.95
71504;BME280;59323;50.874;7.028;2024-03-02T02:31:36;99662.16;;;7.13;95.02
71504;BME280;59323;50.874;7.028;2024-03-02T02:34:02;99664.81;;;7.10;95.40
71504;BME280;59323;50.874;7.028;2024-03-02T02:36:28;99664.81;;;7.10;94.99
71504;BME280;59323;50.874;7.028;2024-03-02T02:38:53;99660.50;;;7.05;95.51
71504;BME280;59323;50.874;7.028;2024-03-02T02:41:19;99663.22;;;7.05;95.41
71504;BME280;59323;50.874;7.028;2024-03-02T02:43:44;99665.97;;;7.09;95.16
71504;BME280;59323;50.874;7.028;2024-03-02T02:46:12;99658.19;;;7.04;95.09
71504;BME280;59323;50.874;7.028;2024-03-02T02:48:40;99658.22;;;7.07;95.28
71504;BME280;59323;50.874;7.028;2024-03-02T02:51:07;99660.50;;;7.05;95.29
71504;BME280;59323;50.874;7.028;2024-03-02T02:53:33;99658.94;;;7.04;95.16
71504;BME280;59323;50.874;7.028;2024-03-02T02:56:00;99656.63;;;7.03;95.30
71504;BME280;59323;50.874;7.028;2024-03-02T02:58:28;99667.84;;;7.05;95.44
71504;BME280;59323;50.874;7.028;2024-03-02T03:00:53;99665.53;;;7.07;94.87
71504;BME280;59323;50.874;7.028;2024-03-02T03:03:21;99660.16;;;7.07;95.04
71504;BME280;59323;50.874;7.028;2024-03-02T03:05:47;99657.41;;;7.03;95.26
71504;BME280;59323;50.874;7.028;2024-03-02T03:08:12;99664.75;;;7.06;95.19
71504;BME280;59323;50.874;7.028;2024-03-02T03:10:37;99665.50;;;7.03;95.18
71504;BME280;59323;50.874;7.028;2024-03-02T03:13:05;99659.72;;;7.05;95.21
71504;BME280;59323;50.874;7.028;2024-03-02T03:15:37;99656.66;;;7.06;94.92
71504;BME280;59323;50.874;7.028;2024-03-02T03:18:04;99662.78;;;7.03;95.49
71504;BME280;59323;50.874;7.028;2024-03-02T03:20:30;99662.03;;;7.03;95.41
71504;BME280;59323;50.874;7.028;2024-03-02T03:22:58;99664.00;;;7.06;95.48
71504;BME280;59323;50.874;7.028;2024-03-02T03:25:23;99665.53;;;7.07;95.02
71504;BME280;59323;50.874;7.028;2024-03-02T03:27:49;99660.91;;;7.07;95.20
71504;BME280;59323;50.874;7.028;2024-03-02T03:30:14;99668.97;;;7.04;95.36
71504;BME280;59323;50.874;7.028;2024-03-02T03:32:40;99672.53;;;7.11;94.70
71504;BME280;59323;50.874;7.028;2024-03-02T03:35:10;99663.66;;;7.11;94.22
71504;BME280;59323;50.874;7.028;2024-03-02T03:37:35;99676.41;;;7.10;94.40
71504;BME280;59323;50.874;7.028;2024-03-02T03:40:03;99682.56;;;7.11;94.27
71504;BME280;59323;50.874;7.028;2024-03-02T03:42:37;99681.03;;;7.10;94.45
71504;BME280;59323;50.874;7.028;2024-03-02T03:45:04;99681.03;;;7.10;94.36
71504;BME280;59323;50.874;7.028;2024-03-02T03:47:31;99681.50;;;7.15;93.52
71504;BME280;59323;50.874;7.028;2024-03-02T03:50:01;99679.50;;;7.12;93.84
71504;BME280;59323;50.874;7.028;2024-03-02T03:52:30;99688.09;;;7.18;93.12
71504;BME280;59323;50.874;7.028;2024-03-02T03:54:56;99681.91;;;7.17;93.32
71504;BME280;59323;50.874;7.028;2024-03-02T03:57:21;99686.59;;;7.20;92.84
71504;BME280;59323;50.874;7.028;2024-03-02T03:59:51;99680.03;;;7.21;92.86
71504;BME280;59323;50.874;7.028;2024-03-02T04:02:18;99679.56;;;7.16;92.80
71504;BME280;59323;50.874;7.028;2024-03-02T04:04:44;99687.25;;;7.14;93.02
71504;BME280;59323;50.874;7.028;2024-03-02T04:07:12;99684.50;;;7.10;93.25
71504;BME280;59323;50.874;7.028;2024-03-02T04:09:37;99684.88;;;7.09;93.71
71504;BME280;59323;50.874;7.028;2024-03-02T04:12:05;99684.88;;;7.09;93.66
71504;BME280;59323;50.874;7.028;2024-03-02T04:14:30;99697.59;;;7.08;93.26
71504;BME280;59323;50.874;7.028;2024-03-02T04:16:58;99687.56;;;7.09;93.49
71504;BME280;59323;50.874;7.028;2024-03-02T04:19:23;99698.75;;;7.07;93.52
71504;BME280;59323;50.874;7.028;2024-03-02T04:21:49;99696.81;;;7.08;93.14
71504;BME280;59323;50.874;7.028;2024-03-02T04:24:14;99697.13;;;7.03;93.75
71504;BME280;59323;50.874;7.028;2024-03-02T04:26:39;99694.75;;;6.97;94.17
71504;BME280;59323;50.874;7.028;2024-03-02T04:29:07;99686.66;;;6.97;93.87
71504;BME280;59323;50.874;7.028;2024-03-02T04:31:33;99703.59;;;6.94;94.61
71504;BME280;59323;50.874;7.028;2024-03-02T04:34:01;99703.13;;;6.89;95.17
71504;BME280;59323;50.874;7.028;2024-03-02T04:36:29;99710.34;;;6.81;96.03
71504;BME280;59323;50.874;7.028;2024-03-02T04:38:54;99706.44;;;6.79;95.69
71504;BME280;59323;50.874;7.028;2024-03-02T04:41:20;99705.25;;;6.76;96.39
71504;BME280;59323;50.874;7.028;2024-03-02T04:43:45;99712.09;;;6.70;96.66
71504;BME280;59323;50.874;7.028;2024-03-02T04:46:14;99716.72;;;6.70;96.85
71504;BME280;59323;50.874;7.028;2024-03-02T04:48:39;99706.25;;;6.64;97.18
71504;BME280;59323;50.874;7.028;2024-03-02T04:51:05;99713.13;;;6.62;96.98
71504;BME280;59323;50.874;7.028;2024-03-02T04:53:30;99714.19;;;6.54;97.14
71504;BME280;59323;50.874;7.028;2024-03-02T04:55:55;99709.13;;;6.52;97.18
71504;BME280;59323;50.874;7.028;2024-03-02T04:58:21;99714.44;;;6.49;97.35
71504;BME280;59323;50.874;7.028;2024-03-02T05:00:46;99719.16;;;6.52;97.38
71504;BME280;59323;50.874;7.028;2024-03-02T05:03:12;99727.53;;;6.47;97.90
71504;BME280;59323;50.874;7.028;2024-03-02T05:05:42;99727.06;;;6.41;97.98
71504;BME280;59323;50.874;7.028;2024-03-02T05:08:08;99737.13;;;6.44;98.04
71504;BME280;59323;50.874;7.028;2024-03-02T05:10:33;99725.84;;;6.39;98.86
71504;BME280;59323;50.874;7.028;2024-03-02T05:12:58;99736.22;;;6.36;99.06
71504;BME280;59323;50.874;7.028;2024-03-02T05:15:24;99737.00;;;6.37;99.74
71504;BME280;59323;50.874;7.028;2024-03-02T05:17:50;99740.06;;;6.35;99.65
71504;BME280;59323;50.874;7.028;2024-03-02T05:20:16;99736.22;;;6.36;99.64
71504;BME280;59323;50.874;7.028;2024-03-02T05:22:44;99739.66;;;6.33;99.47
71504;BME280;59323;50.874;7.028;2024-03-02T05:25:09;99725.31;;;6.29;99.74
71504;BME280;59323;50.874;7.028;2024-03-02T05:27:35;99719.88;;;6.26;99.77
71504;BME280;59323;50.874;7.028;2024-03-02T05:30:01;99716.81;;;6.27;99.69
71504;BME280;59323;50.874;7.028;2024-03-02T05:32:31;99722.91;;;6.24;99.81
71504;BME280;59323;50.874;7.028;2024-03-02T05:34:56;99717.53;;;6.24;99.89
71504;BME280;59323;50.874;7.028;2024-03-02T05:37:22;99717.47;;;6.21;100.00
71504;BME280;59323;50.874;7.028;2024-03-02T05:39:47;99719.38;;;6.20;100.00
71504;BME280;59323;50.874;7.028;2024-03-02T05:42:13;99719.69;;;6.15;100.00
71504;BME280;59323;50.874;7.028;2024-03-02T05:44:38;99720.47;;;6.16;100.00
71504;BME280;59323;50.874;7.028;2024-03-02T05:47:04;99721.53;;;6.11;100.00
71504;BME280;59323;50.874;7.028;2024-03-02T05:49:29;99733.88;;;6.12;100.00
71504;BME280;59323;50.874;7.028;2024-03-02T05:51:55;99717.28;;;6.10;100.00
71504;BME280;59323;50.874;7.028;2024-03-02T05:54:20;99720.75;;;6.11;100.00
71504;BME280;59323;50.874;7.028;2024-03-02T05:56:46;99724.94;;;6.08;100.00
71504;BME280;59323;50.874;7.028;2024-03-02T05:59:13;99726.09;;;6.07;100.00
71504;BME280;59323;50.874;7.028;2024-03-02T06:01:39;99727.22;;;6.06;100.00
71504;BME280;59323;50.874;7.028;2024-03-02T06:04:05;99723.53;;;6.14;100.00
71504;BME280;59323;50.874;7.028;2024-03-02T06:06:33;99722.38;;;6.15;100.00
71504;BME280;59323;50.874;7.028;2024-03-02T06:09:03;99730.47;;;6.15;100.00
71504;BME280;59323;50.874;7.028;2024-03-02T06:11:36;99729.28;;;6.13;100.00
71504;BME280;59323;50.874;7.028;2024-03-02T06:14:03;99735.44;;;6.13;100.00
71504;BME280;59323;50.874;7.028;2024-03-02T06:16:30;99729.63;;;6.11;100.00
71504;BME280;59323;50.874;7.028;2024-03-02T06:18:56;99737.38;;;6.13;100.00
71504;BME280;59323;50.874;7.028;2024-03-02T06:21:23;99732.75;;;6.13;100.00
71504;BME280;59323;50.874;7.028;2024-03-02T06:23:49;99742.03;;;6.16;100.00
71504;BME280;59323;50.874;7.028;2024-03-02T06:26:14;99745.63;;;6.23;100.00
71504;BME280;59323;50.874;7.028;2024-03-02T06:28:39;99746.84;;;6.26;100.00
71504;BME280;59323;50.874;7.028;2024-03-02T06:31:04;99737.53;;;6.23;100.00
71504;BME280;59323;50.874;7.028;2024-03-02T06:33:30;99746.47;;;6.27;100.00
71504;BME280;59323;50.874;7.028;2024-03-02T06:35:55;99746.91;;;6.29;100.00
71504;BME280;59323;50.874;7.028;2024-03-02T06:38:20;99743.84;;;6.31;100.00
71504;BME280;59323;50.874;7.028;2024-03-02T06:40:46;99744.69;;;6.35;100.00
71504;BME280;59323;50.874;7.028;2024-03-02T06:43:11;99743.97;;;6.38;100.00
71504;BME280;59323;50.874;7.028;2024-03-02T06:45:36;99742.47;;;6.41;100.00
71504;BME280;59323;50.874;7.028;2024-03-02T06:48:02;99749.06;;;6.43;99.98
71504;BME280;59323;50.874;7.028;2024-03-02T06:50:30;99747.91;;;6.44;99.98
71504;BME280;59323;50.874;7.028;2024-03-02T06:52:55;99751.81;;;6.47;99.97
71504;BME280;59323;50.874;7.028;2024-03-02T06:55:24;99757.56;;;6.45;100.00
71504;BME280;59323;50.874;7.028;2024-03-02T06:57:52;99762.25;;;6.48;99.72
71504;BME280;59323;50.874;7.028;2024-03-02T07:00:18;99765.66;;;6.45;100.00
71504;BME280;59323;50.874;7.028;2024-03-02T07:02:45;99756.44;;;6.46;100.00
71504;BME280;59323;50.874;7.028;2024-03-02T07:05:13;99762.69;;;6.50;100.00
71504;BME280;59323;50.874;7.028;2024-03-02T07:07:40;99761.56;;;6.51;100.00
71504;BME280;59323;50.874;7.028;2024-03-02T07:10:06;99769.97;;;6.50;100.00
71504;BME280;59323;50.874;7.028;2024-03-02T07:12:35;99767.44;;;6.57;100.00
71504;BME280;59323;50.874;7.028;2024-03-02T07:15:03;99772.53;;;6.62;99.84
71504;BME280;59323;50.874;7.028;2024-03-02T07:17:29;99769.88;;;6.65;99.97
71504;BME280;59323;50.874;7.028;2024-03-02T07:19:56;99781.22;;;6.75;99.40
71504;BME280;59323;50.874;7.028;2024-03-02T07:22:21;99780.19;;;6.83;99.00
71504;BME280;59323;50.874;7.028;2024-03-02T07:24:47;99792.69;;;6.94;98.38
71504;BME280;59323;50.874;7.028;2024-03-02T07:27:13;99790.53;;;7.04;97.95
71504;BME280;59323;50.874;7.028;2024-03-02T07:29:39;99801.84;;;7.13;97.53
71504;BME280;59323;50.874;7.028;2024-03-02T07:32:05;99800.09;;;7.24;96.96
71504;BME280;59323;50.874;7.028;2024-03-02T07:34:31;99805.28;;;7.36;96.24
71504;BME280;59323;50.874;7.028;2024-03-02T07:36:56;99808.19;;;7.50;95.14
71504;BME280;59323;50.874;7.028;2024-03-02T07:39:22;99802.22;;;7.68;94.60
71504;BME280;59323;50.874;7.028;2024-03-02T07:41:47;99792.03;;;7.84;93.88
71504;BME280;59323;50.874;7.028;2024-03-02T07:44:13;99792.19;;;7.98;93.03
71504;BME280;59323;50.874;7.028;2024-03-02T07:46:43;99781.91;;;8.14;91.37
71504;BME280;59323;50.874;7.028;2024-03-02T07:49:09;99786.41;;;8.37;90.10
71504;BME280;59323;50.874;7.028;2024-03-02T07:51:40;99781.44;;;8.42;88.78
71504;BME280;59323;50.874;7.028;2024-03-02T07:54:05;99790.03;;;8.48;87.86
71504;BME280;59323;50.874;7.028;2024-03-02T07:56:33;99796.75;;;8.65;87.17
71504;BME280;59323;50.874;7.028;2024-03-02T07:58:59;99793.41;;;8.82;86.10
71504;BME280;59323;50.874;7.028;2024-03-02T08:01:32;99798.53;;;8.94;85.61
71504;BME280;59323;50.874;7.028;2024-03-02T08:04:01;99803.22;;;9.01;85.20
71504;BME280;59323;50.874;7.028;2024-03-02T08:06:28;99799.84;;;9.11;85.67
71504;BME280;59323;50.874;7.028;2024-03-02T08:08:57;99813.50;;;9.29;84.01
71504;BME280;59323;50.874;7.028;2024-03-02T08:11:23;99802.38;;;9.48;84.08
71504;BME280;59323;50.874;7.028;2024-03-02T08:13:49;99810.19;;;9.60;81.83
71504;BME280;59323;50.874;7.028;2024-03-02T08:16:18;99810.25;;;9.71;81.97
71504;BME280;59323;50.874;7.028;2024-03-02T08:18:47;99810.69;;;9.80;81.40
71504;BME280;59323;50.874;7.028;2024-03-02T08:21:13;99816.16;;;9.91;80.12
71504;BME280;59323;50.874;7.028;2024-03-02T08:23:41;99831.72;;;10.04;78.48
71504;BME280;59323;50.874;7.028;2024-03-02T08:26:08;99822.81;;;10.04;78.59
71504;BME280;59323;50.874;7.028;2024-03-02T08:28:33;99822.06;;;10.10;78.88
71504;BME280;59323;50.874;7.028;2024-03-02T08:31:02;99810.09;;;10.22;76.98
71504;BME280;59323;50.874;7.028;2024-03-02T08:33:27;99818.94;;;10.12;77.97
71504;BME280;59323;50.874;7.028;2024-03-02T08:35:55;99822.41;;;10.05;77.99
71504;BME280;59323;50.874;7.028;2024-03-02T08:38:21;99822.03;;;10.03;77.83
71504;BME280;59323;50.874;7.028;2024-03-02T08:40:49;99821.63;;;10.01;79.21
71504;BME280;59323;50.874;7.028;2024-03-02T08:43:14;99820.06;;;9.93;77.99
71504;BME280;59323;50.874;7.028;2024-03-02T08:45:40;99817.75;;;9.99;78.18
71504;BME280;59323;50.874;7.028;2024-03-02T08:48:07;99817.38;;;10.07;77.81
71504;BME280;59323;50.874;7.028;2024-03-02T08:50:38;99820.91;;;10.18;77.42
71504;BME280;59323;50.874;7.028;2024-03-02T08:53:03;99810.09;;;10.33;77.93
71504;BME280;59323;50.874;7.028;2024-03-02T08:55:29;99809.78;;;10.52;77.29
71504;BME280;59323;50.874;7.028;2024-03-02T08:58:07;99821.81;;;10.72;75.42
71504;BME280;59323;50.874;7.028;2024-03-02T09:00:40;99821.06;;;10.86;74.51
71504;BME280;59323;50.874;7.028;2024-03-02T09:03:06;99825.31;;;11.01;73.72
71504;BME280;59323;50.874;7.028;2024-03-02T09:05:35;99828.44;;;11.03;72.31
71504;BME280;59323;50.874;7.028;2024-03-02T09:08:00;99828.44;;;11.18;73.52
71504;BME280;59323;50.874;7.028;2024-03-02T09:10:28;99832.31;;;11.31;71.97
71504;BME280;59323;50.874;7.028;2024-03-02T09:12:54;99832.31;;;11.31;71.20
71504;BME280;59323;50.874;7.028;2024-03-02T09:15:19;99836.19;;;11.37;71.36
71504;BME280;59323;50.874;7.028;2024-03-02T09:17:44;99828.75;;;11.52;71.16
71504;BME280;59323;50.874;7.028;2024-03-02T09:20:13;99827.56;;;11.70;71.62
71504;BME280;59323;50.874;7.028;2024-03-02T09:23:13;99830.69;;;11.80;69.74
71504;BME280;59323;50.874;7.028;2024-03-02T09:26:05;99831.03;;;11.89;69.15
71504;BME280;59323;50.874;7.028;2024-03-02T09:28:31;99825.97;;;11.91;69.18
71504;BME280;59323;50.874;7.028;2024-03-02T09:30:56;99825.91;;;12.01;69.05
71504;BME280;59323;50.874;7.028;2024-03-02T09:33:21;99818.50;;;12.09;68.40
71504;BME280;59323;50.874;7.028;2024-03-02T09:35:47;99824.28;;;12.18;68.58
71504;BME280;59323;50.874;7.028;2024-03-02T09:38:13;99829.66;;;12.36;68.61
71504;BME280;59323;50.874;7.028;2024-03-02T09:40:41;99842.06;;;12.44;66.63
71504;BME280;59323;50.874;7.028;2024-03-02T09:43:07;99840.03;;;12.55;66.92
71504;BME280;59323;50.874;7.028;2024-03-02T09:45:32;99841.94;;;12.65;65.26
71504;BME280;59323;50.874;7.028;2024-03-02T09:48:00;99847.28;;;12.80;64.89
71504;BME280;59323;50.874;7.028;2024-03-02T09:50:25;99843.34;;;12.84;64.62
71504;BME280;59323;50.874;7.028;2024-03-02T09:52:52;99845.72;;;12.79;64.53
71504;BME280;59323;50.874;7.028;2024-03-02T09:55:18;99837.06;;;12.91;64.53
71504;BME280;59323;50.874;7.028;2024-03-02T09:57:45;99845.59;;;12.93;64.75
71504;BME280;59323;50.874;7.028;2024-03-02T10:00:11;99842.09;;;12.96;64.85
71504;BME280;59323;50.874;7.028;2024-03-02T10:02:40;99850.25;;;12.96;64.49
71504;BME280;59323;50.874;7.028;2024-03-02T10:05:06;99844.91;;;12.85;63.60
71504;BME280;59323;50.874;7.028;2024-03-02T10:07:32;99843.00;;;12.79;64.80
71504;BME280;59323;50.874;7.028;2024-03-02T10:09:57;99828.56;;;12.82;64.69
71504;BME280;59323;50.874;7.028;2024-03-02T10:12:23;99834.00;;;12.85;64.82
71504;BME280;59323;50.874;7.028;2024-03-02T10:14:48;99830.13;;;12.83;65.41
71504;BME280;59323;50.874;7.028;2024-03-02T10:17:17;99845.97;;;12.95;64.65
71504;BME280;59323;50.874;7.028;2024-03-02T10:19:42;99835.13;;;12.88;63.68
71504;BME280;59323;50.874;7.028;2024-03-02T10:22:09;99823.41;;;12.94;64.06
71504;BME280;59323;50.874;7.028;2024-03-02T10:24:39;99820.31;;;12.89;63.66
71504;BME280;59323;50.874;7.028;2024-03-02T10:27:09;99825.38;;;12.90;64.10
71504;BME280;59323;50.874;7.028;2024-03-02T10:29:39;99814.84;;;12.92;63.84
71504;BME280;59323;50.874;7.028;2024-03-02T10:32:08;99816.72;;;12.99;63.05
71504;BME280;59323;50.874;7.028;2024-03-02T10:34:35;99818.63;;;13.09;63.66
71504;BME280;59323;50.874;7.028;2024-03-02T10:37:01;99821.63;;;13.25;63.62
71504;BME280;59323;50.874;7.028;2024-03-02T10:39:26;99810.66;;;13.29;63.31
71504;BME280;59323;50.874;7.028;2024-03-02T10:41:53;99812.91;;;13.38;63.08
71504;BME280;59323;50.874;7.028;2024-03-02T10:44:22;99809.81;;;13.36;62.29
71504;BME280;59323;50.874;7.028;2024-03-02T10:46:49;99800.94;;;13.28;62.15
71504;BME280;59323;50.874;7.028;2024-03-02T10:49:17;99806.56;;;13.48;61.86
71504;BME280;59323;50.874;7.028;2024-03-02T10:51:44;99797.25;;;13.45;62.11
71504;BME280;59323;50.874;7.028;2024-03-02T10:54:09;99794.59;;;13.38;61.30
71504;BME280;59323;50.874;7.028;2024-03-02T10:56:43;99801.53;;;13.46;61.70
71504;BME280;59323;50.874;7.028;2024-03-02T10:59:33;99800.38;;;13.44;61.71
71504;BME280;59323;50.874;7.028;2024-03-02T11:02:01;99795.94;;;13.57;60.86
71504;BME280;59323;50.874;7.028;2024-03-02T11:04:28;99803.34;;;13.56;61.79
71504;BME280;59323;50.874;7.028;2024-03-02T11:18:25;99789.53;;;13.74;60.72
71504;BME280;59323;50.874;7.028;2024-03-02T11:21:28;99783.75;;;13.69;60.93
71504;BME280;59323;50.874;7.028;2024-03-02T11:28:12;99790.72;;;13.73;60.57
71504;BME280;59323;50.874;7.028;2024-03-02T11:30:52;99774.16;;;13.53;61.38
71504;BME280;59323;50.874;7.028;2024-03-02T11:37:28;99793.47;;;13.70;62.12
71504;BME280;59323;50.874;7.028;2024-03-02T11:50:52;99776.38;;;13.62;62.19
71504;BME280;59323;50.874;7.028;2024-03-02T11:53:21;99773.28;;;13.60;62.23
71504;BME280;59323;50.874;7.028;2024-03-02T11:55:46;99779.22;;;13.51;62.37
71504;BME280;59323;50.874;7.028;2024-03-02T11:58:14;99781.09;;;13.58;63.72
71504;BME280;59323;50.874;7.028;2024-03-02T12:00:43;99777.28;;;13.52;62.50
71504;BME280;59323;50.874;7.028;2024-03-02T12:03:10;99778.41;;;13.54;62.26
71504;BME280;59323;50.874;7.028;2024-03-02T12:05:37;99771.53;;;13.43;62.69
71504;BME280;59323;50.874;7.028;2024-03-02T12:08:04;99769.66;;;13.36;63.25
71504;BME280;59323;50.874;7.028;2024-03-02T12:10:30;99773.53;;;13.39;62.89
71504;BME280;59323;50.874;7.028;2024-03-02T12:12:59;99765.81;;;13.30;63.33
71504;BME280;59323;50.874;7.028;2024-03-02T12:15:30;99750.19;;;13.34;62.73
71504;BME280;59323;50.874;7.028;2024-03-02T12:18:00;99750.88;;;13.42;64.08
71504;BME280;59323;50.874;7.028;2024-03-02T12:20:30;99751.53;;;13.53;63.49
71504;BME280;59323;50.874;7.028;2024-03-02T12:22:59;99749.97;;;13.52;62.60
71504;BME280;59323;50.874;7.028;2024-03-02T12:25:25;99744.84;;;13.57;63.12
71504;BME280;59323;50.874;7.028;2024-03-02T12:27:55;99744.41;;;13.62;62.60
71504;BME280;59323;50.874;7.028;2024-03-02T12:30:24;99736.22;;;13.62;62.45
71504;BME280;59323;50.874;7.028;2024-03-02T12:32:54;99736.19;;;13.66;62.64
71504;BME280;59323;50.874;7.028;2024-03-02T12:35:24;99733.00;;;13.71;62.60
71504;BME280;59323;50.874;7.028;2024-03-02T12:37:51;99726.25;;;13.79;62.77
71504;BME280;59323;50.874;7.028;2024-03-02T12:40:18;99720.75;;;13.83;62.99
71504;BME280;59323;50.874;7.028;2024-03-02T12:42:46;99723.84;;;13.85;62.75
71504;BME280;59323;50.874;7.028;2024-03-02T12:45:13;99716.84;;;13.84;62.77
71504;BME280;59323;50.874;7.028;2024-03-02T12:47:39;99720.03;;;13.79;62.09
71504;BME280;59323;50.874;7.028;2024-03-02T12:50:06;99713.03;;;13.78;61.30
71504;BME280;59323;50.874;7.028;2024-03-02T12:52:32;99711.88;;;13.75;62.36
71504;BME280;59323;50.874;7.028;2024-03-02T12:55:01;99711.53;;;13.73;62.98
71504;BME280;59323;50.874;7.028;2024-03-02T12:57:29;99697.00;;;13.80;62.18
71504;BME280;59323;50.874;7.028;2024-03-02T12:59:59;99705.44;;;13.89;62.17
71504;BME280;59323;50.874;7.028;2024-03-02T13:02:30;99708.81;;;14.00;62.67
71504;BME280;59323;50.874;7.028;2024-03-02T13:04:59;99697.47;;;14.02;62.41
71504;BME280;59323;50.874;7.028;2024-03-02T13:07:25;99696.13;;;14.13;61.36
71504;BME280;59323;50.874;7.028;2024-03-02T13:09:53;99695.00;;;14.11;62.45
71504;BME280;59323;50.874;7.028;2024-03-02T13:12:24;99696.88;;;14.14;61.30
71504;BME280;59323;50.874;7.028;2024-03-02T13:14:52;99691.91;;;14.09;60.77
71504;BME280;59323;50.874;7.028;2024-03-02T13:17:20;99707.88;;;14.10;61.04
71504;BME280;59323;50.874;7.028;2024-03-02T13:22:21;99694.44;;;13.96;61.37
71504;BME280;59323;50.874;7.028;2024-03-02T13:24:49;99694.47;;;13.92;61.68
71504;BME280;59323;50.874;7.028;2024-03-02T13:27:14;99697.09;;;14.00;61.92
71504;BME280;59323;50.874;7.028;2024-03-02T13:29:45;99697.81;;;14.04;61.84
71504;BME280;59323;50.874;7.028;2024-03-02T13:32:10;99691.59;;;14.03;61.96
71504;BME280;59323;50.874;7.028;2024-03-02T13:34:36;99695.03;;;14.07;60.76
71504;BME280;59323;50.874;7.028;2024-03-02T13:37:03;99693.09;;;14.08;60.98
71504;BME280;59323;50.874;7.028;2024-03-02T13:39:30;99685.72;;;14.05;61.24
71504;BME280;59323;50.874;7.028;2024-03-02T13:41:57;99685.72;;;14.05;61.65
71504;BME280;59323;50.874;7.028;2024-03-02T13:44:29;99676.28;;;14.09;59.96
71504;BME280;59323;50.874;7.028;2024-03-02T13:46:54;99686.47;;;14.05;61.35
71504;BME280;59323;50.874;7.028;2024-03-02T13:49:22;99677.06;;;14.10;61.50